sensor_id;sensor_type;location;lat;lon;timestamp;P1;durP1;ratioP1;P2;durP2;ratioP2
74291;SDS011;62687;55.738;37.516;2023-03-21T00:00:08;6.55;;;2.45;;
74291;SDS011;62687;55.738;37.516;2023-03-21T00:02:53;6.28;;;3.40;;
74291;SDS011;62687;55.738;37.516;2023-03-21T00:05:42;8.93;;;3.10;;
74291;SDS011;62687;55.738;37.516;2023-03-21T00:08:32;5.70;;;2.70;;
74291;SDS011;62687;55.738;37.516;2023-03-21T00:11:16;7.72;;;3.20;;
74291;SDS011;62687;55.738;37.516;2023-03-21T00:14:00;7.47;;;2.78;;
74291;SDS011;62687;55.738;37.516;2023-03-21T00:16:48;10.63;;;3.28;;
74291;SDS011;62687;55.738;37.516;2023-03-21T00:19:33;9.55;;;3.55;;
74291;SDS011;62687;55.738;37.516;2023-03-21T00:22:20;9.40;;;3.13;;
74291;SDS011;62687;55.738;37.516;2023-03-21T00:25:05;9.30;;;2.65;;
74291;SDS011;62687;55.738;37.516;2023-03-21T00:27:50;9.35;;;3.10;;
74291;SDS011;62687;55.738;37.516;2023-03-21T00:30:35;8.98;;;3.20;;
74291;SDS011;62687;55.738;37.516;2023-03-21T00:33:18;11.40;;;4.00;;
74291;SDS011;62687;55.738;37.516;2023-03-21T00:36:03;11.52;;;3.50;;
74291;SDS011;62687;55.738;37.516;2023-03-21T00:38:48;10.50;;;3.60;;
74291;SDS011;62687;55.738;37.516;2023-03-21T00:41:32;14.25;;;3.97;;
74291;SDS011;62687;55.738;37.516;2023-03-21T00:44:17;10.00;;;3.65;;
74291;SDS011;62687;55.738;37.516;2023-03-21T00:47:04;9.07;;;3.20;;
74291;SDS011;62687;55.738;37.516;2023-03-21T00:49:49;9.27;;;3.25;;
74291;SDS011;62687;55.738;37.516;2023-03-21T00:52:33;11.88;;;3.38;;
74291;SDS011;62687;55.738;37.516;2023-03-21T00:55:18;5.20;;;2.42;;
74291;SDS011;62687;55.738;37.516;2023-03-21T00:58:04;7.28;;;2.75;;
74291;SDS011;62687;55.738;37.516;2023-03-21T01:00:49;5.80;;;2.63;;
74291;SDS011;62687;55.738;37.516;2023-03-21T01:03:33;8.80;;;3.03;;
74291;SDS011;62687;55.738;37.516;2023-03-21T01:06:25;7.88;;;2.38;;
74291;SDS011;62687;55.738;37.516;2023-03-21T01:09:14;11.35;;;2.47;;
74291;SDS011;62687;55.738;37.516;2023-03-21T01:12:04;7.20;;;2.70;;
74291;SDS011;62687;55.738;37.516;2023-03-21T01:14:48;11.00;;;2.80;;
74291;SDS011;62687;55.738;37.516;2023-03-21T01:17:32;8.52;;;2.67;;
74291;SDS011;62687;55.738;37.516;2023-03-21T01:20:15;6.90;;;2.83;;
74291;SDS011;62687;55.738;37.516;2023-03-21T01:23:00;7.20;;;2.72;;
74291;SDS011;62687;55.738;37.516;2023-03-21T01:25:46;7.97;;;2.80;;
74291;SDS011;62687;55.738;37.516;2023-03-21T01:28:31;8.85;;;2.75;;
74291;SDS011;62687;55.738;37.516;2023-03-21T01:31:15;5.68;;;2.92;;
74291;SDS011;62687;55.738;37.516;2023-03-21T01:34:00;7.78;;;2.72;;
74291;SDS011;62687;55.738;37.516;2023-03-21T01:36:44;6.57;;;2.63;;
74291;SDS011;62687;55.738;37.516;2023-03-21T01:39:29;6.60;;;2.38;;
74291;SDS011;62687;55.738;37.516;2023-03-21T01:42:15;8.27;;;2.42;;
74291;SDS011;62687;55.738;37.516;2023-03-21T01:45:01;6.63;;;2.88;;
74291;SDS011;62687;55.738;37.516;2023-03-21T01:47:48;11.05;;;3.10;;
74291;SDS011;62687;55.738;37.516;2023-03-21T01:50:32;5.18;;;2.83;;
74291;SDS011;62687;55.738;37.516;2023-03-21T01:53:21;6.20;;;2.55;;
74291;SDS011;62687;55.738;37.516;2023-03-21T01:56:11;5.03;;;2.42;;
74291;SDS011;62687;55.738;37.516;2023-03-21T01:59:46;5.68;;;2.63;;
74291;SDS011;62687;55.738;37.516;2023-03-21T02:02:13;6.07;;;3.20;;
74291;SDS011;62687;55.738;37.516;2023-03-21T02:05:03;6.97;;;2.92;;
74291;SDS011;62687;55.738;37.516;2023-03-21T02:07:47;14.20;;;3.65;;
74291;SDS011;62687;55.738;37.516;2023-03-21T02:10:35;9.70;;;2.95;;
74291;SDS011;62687;55.738;37.516;2023-03-21T02:13:19;6.78;;;2.22;;
74291;SDS011;62687;55.738;37.516;2023-03-21T02:16:07;9.75;;;2.90;;
74291;SDS011;62687;55.738;37.516;2023-03-21T02:22:14;5.45;;;2.72;;
74291;SDS011;62687;55.738;37.516;2023-03-21T02:28:32;6.78;;;2.72;;
74291;SDS011;62687;55.738;37.516;2023-03-21T02:32:08;9.20;;;3.30;;
74291;SDS011;62687;55.738;37.516;2023-03-21T02:40:52;7.93;;;3.22;;
74291;SDS011;62687;55.738;37.516;2023-03-21T02:46:42;13.85;;;3.10;;
74291;SDS011;62687;55.738;37.516;2023-03-21T02:52:35;10.07;;;3.70;;
74291;SDS011;62687;55.738;37.516;2023-03-21T02:55:24;8.68;;;3.35;;
74291;SDS011;62687;55.738;37.516;2023-03-21T02:58:12;7.47;;;3.65;;
74291;SDS011;62687;55.738;37.516;2023-03-21T03:01:02;10.95;;;2.95;;
74291;SDS011;62687;55.738;37.516;2023-03-21T03:03:46;10.45;;;3.95;;
74291;SDS011;62687;55.738;37.516;2023-03-21T03:06:42;9.57;;;3.58;;
74291;SDS011;62687;55.738;37.516;2023-03-21T03:21:46;13.02;;;3.40;;
74291;SDS011;62687;55.738;37.516;2023-03-21T03:24:40;12.88;;;4.00;;
74291;SDS011;62687;55.738;37.516;2023-03-21T03:27:39;11.23;;;3.85;;
74291;SDS011;62687;55.738;37.516;2023-03-21T03:30:26;13.30;;;3.85;;
74291;SDS011;62687;55.738;37.516;2023-03-21T03:33:11;14.18;;;3.45;;
74291;SDS011;62687;55.738;37.516;2023-03-21T03:35:59;10.20;;;3.60;;
74291;SDS011;62687;55.738;37.516;2023-03-21T03:38:45;17.48;;;4.20;;
74291;SDS011;62687;55.738;37.516;2023-03-21T03:41:32;13.18;;;4.07;;
74291;SDS011;62687;55.738;37.516;2023-03-21T03:44:23;10.80;;;3.95;;
74291;SDS011;62687;55.738;37.516;2023-03-21T03:47:09;11.73;;;5.32;;
74291;SDS011;62687;55.738;37.516;2023-03-21T03:53:20;9.57;;;2.60;;
74291;SDS011;62687;55.738;37.516;2023-03-21T03:56:07;14.63;;;4.20;;
74291;SDS011;62687;55.738;37.516;2023-03-21T03:58:55;19.80;;;4.45;;
74291;SDS011;62687;55.738;37.516;2023-03-21T04:04:24;14.85;;;4.43;;
74291;SDS011;62687;55.738;37.516;2023-03-21T04:07:11;16.00;;;4.97;;
74291;SDS011;62687;55.738;37.516;2023-03-21T04:09:55;11.20;;;4.60;;
74291;SDS011;62687;55.738;37.516;2023-03-21T04:12:40;11.35;;;4.00;;
74291;SDS011;62687;55.738;37.516;2023-03-21T04:15:24;12.93;;;4.63;;
74291;SDS011;62687;55.738;37.516;2023-03-21T04:18:08;15.75;;;4.97;;
74291;SDS011;62687;55.738;37.516;2023-03-21T04:20:52;15.00;;;5.00;;
74291;SDS011;62687;55.738;37.516;2023-03-21T04:23:36;13.93;;;5.20;;
74291;SDS011;62687;55.738;37.516;2023-03-21T04:26:21;11.82;;;4.88;;
74291;SDS011;62687;55.738;37.516;2023-03-21T04:29:05;11.93;;;4.80;;
74291;SDS011;62687;55.738;37.516;2023-03-21T04:31:50;13.48;;;4.57;;
74291;SDS011;62687;55.738;37.516;2023-03-21T04:34:33;13.35;;;5.15;;
74291;SDS011;62687;55.738;37.516;2023-03-21T04:37:22;11.45;;;4.25;;
74291;SDS011;62687;55.738;37.516;2023-03-21T04:40:06;18.30;;;4.75;;
74291;SDS011;62687;55.738;37.516;2023-03-21T04:42:52;12.02;;;4.43;;
74291;SDS011;62687;55.738;37.516;2023-03-21T04:45:36;15.35;;;4.38;;
74291;SDS011;62687;55.738;37.516;2023-03-21T04:48:20;12.45;;;4.50;;
74291;SDS011;62687;55.738;37.516;2023-03-21T04:51:06;12.05;;;4.88;;
74291;SDS011;62687;55.738;37.516;2023-03-21T04:53:51;13.18;;;4.85;;
74291;SDS011;62687;55.738;37.516;2023-03-21T04:56:34;16.40;;;4.93;;
74291;SDS011;62687;55.738;37.516;2023-03-21T04:59:18;13.93;;;4.97;;
74291;SDS011;62687;55.738;37.516;2023-03-21T05:02:03;12.02;;;4.90;;
74291;SDS011;62687;55.738;37.516;2023-03-21T05:04:48;16.35;;;6.05;;
74291;SDS011;62687;55.738;37.516;2023-03-21T05:07:32;12.80;;;5.65;;
74291;SDS011;62687;55.738;37.516;2023-03-21T05:10:16;17.33;;;5.43;;
74291;SDS011;62687;55.738;37.516;2023-03-21T05:13:00;33.50;;;6.85;;
74291;SDS011;62687;55.738;37.516;2023-03-21T05:15:44;23.98;;;6.35;;
74291;SDS011;62687;55.738;37.516;2023-03-21T05:18:28;17.80;;;5.18;;
74291;SDS011;62687;55.738;37.516;2023-03-21T05:21:13;14.52;;;5.72;;
74291;SDS011;62687;55.738;37.516;2023-03-21T05:24:00;17.15;;;6.45;;
74291;SDS011;62687;55.738;37.516;2023-03-21T05:26:46;25.77;;;6.95;;
74291;SDS011;62687;55.738;37.516;2023-03-21T05:29:33;18.65;;;7.22;;
74291;SDS011;62687;55.738;37.516;2023-03-21T05:32:17;19.42;;;6.80;;
74291;SDS011;62687;55.738;37.516;2023-03-21T05:35:00;15.30;;;6.35;;
74291;SDS011;62687;55.738;37.516;2023-03-21T05:37:45;20.83;;;6.22;;
74291;SDS011;62687;55.738;37.516;2023-03-21T05:40:29;13.88;;;5.75;;
74291;SDS011;62687;55.738;37.516;2023-03-21T05:43:13;19.13;;;7.18;;
74291;SDS011;62687;55.738;37.516;2023-03-21T05:45:57;16.48;;;6.78;;
74291;SDS011;62687;55.738;37.516;2023-03-21T05:48:41;15.25;;;6.38;;
74291;SDS011;62687;55.738;37.516;2023-03-21T05:51:25;18.55;;;5.70;;
74291;SDS011;62687;55.738;37.516;2023-03-21T05:54:09;13.73;;;5.65;;
74291;SDS011;62687;55.738;37.516;2023-03-21T05:56:59;18.63;;;6.07;;
74291;SDS011;62687;55.738;37.516;2023-03-21T05:59:44;27.02;;;6.32;;
74291;SDS011;62687;55.738;37.516;2023-03-21T06:02:28;17.80;;;6.82;;
74291;SDS011;62687;55.738;37.516;2023-03-21T06:05:13;20.13;;;5.80;;
74291;SDS011;62687;55.738;37.516;2023-03-21T06:07:57;10.25;;;3.78;;
74291;SDS011;62687;55.738;37.516;2023-03-21T06:10:41;16.00;;;5.18;;
74291;SDS011;62687;55.738;37.516;2023-03-21T06:13:25;14.18;;;4.93;;
74291;SDS011;62687;55.738;37.516;2023-03-21T06:16:09;14.80;;;6.28;;
74291;SDS011;62687;55.738;37.516;2023-03-21T06:18:53;12.25;;;5.28;;
74291;SDS011;62687;55.738;37.516;2023-03-21T06:21:38;13.80;;;4.95;;
74291;SDS011;62687;55.738;37.516;2023-03-21T06:24:22;16.95;;;5.28;;
74291;SDS011;62687;55.738;37.516;2023-03-21T06:27:07;10.88;;;4.75;;
74291;SDS011;62687;55.738;37.516;2023-03-21T06:29:51;14.82;;;4.40;;
74291;SDS011;62687;55.738;37.516;2023-03-21T06:32:35;13.27;;;5.50;;
74291;SDS011;62687;55.738;37.516;2023-03-21T06:35:19;11.05;;;4.75;;
74291;SDS011;62687;55.738;37.516;2023-03-21T06:38:03;11.73;;;4.78;;
74291;SDS011;62687;55.738;37.516;2023-03-21T06:40:48;17.30;;;4.53;;
74291;SDS011;62687;55.738;37.516;2023-03-21T06:43:32;16.80;;;5.18;;
74291;SDS011;62687;55.738;37.516;2023-03-21T06:46:17;14.05;;;4.20;;
74291;SDS011;62687;55.738;37.516;2023-03-21T06:49:01;14.13;;;4.72;;
74291;SDS011;62687;55.738;37.516;2023-03-21T06:51:46;13.95;;;5.03;;
74291;SDS011;62687;55.738;37.516;2023-03-21T06:54:29;15.02;;;4.13;;
74291;SDS011;62687;55.738;37.516;2023-03-21T06:57:14;10.43;;;5.90;;
74291;SDS011;62687;55.738;37.516;2023-03-21T06:59:58;28.38;;;7.38;;
74291;SDS011;62687;55.738;37.516;2023-03-21T07:02:42;17.63;;;5.40;;
74291;SDS011;62687;55.738;37.516;2023-03-21T07:05:26;13.95;;;5.10;;
74291;SDS011;62687;55.738;37.516;2023-03-21T07:08:10;15.05;;;6.15;;
74291;SDS011;62687;55.738;37.516;2023-03-21T07:10:56;13.38;;;4.82;;
74291;SDS011;62687;55.738;37.516;2023-03-21T07:13:40;13.43;;;5.68;;
74291;SDS011;62687;55.738;37.516;2023-03-21T07:16:24;13.80;;;5.95;;
74291;SDS011;62687;55.738;37.516;2023-03-21T07:19:08;14.38;;;5.90;;
74291;SDS011;62687;55.738;37.516;2023-03-21T07:21:52;24.38;;;5.72;;
74291;SDS011;62687;55.738;37.516;2023-03-21T07:24:36;15.30;;;6.18;;
74291;SDS011;62687;55.738;37.516;2023-03-21T07:27:20;11.35;;;4.97;;
74291;SDS011;62687;55.738;37.516;2023-03-21T07:30:04;12.25;;;4.90;;
74291;SDS011;62687;55.738;37.516;2023-03-21T07:32:49;11.32;;;5.32;;
74291;SDS011;62687;55.738;37.516;2023-03-21T07:35:33;15.82;;;6.10;;
74291;SDS011;62687;55.738;37.516;2023-03-21T07:38:19;12.80;;;5.10;;
74291;SDS011;62687;55.738;37.516;2023-03-21T07:41:03;12.68;;;5.05;;
74291;SDS011;62687;55.738;37.516;2023-03-21T07:43:48;10.23;;;4.65;;
74291;SDS011;62687;55.738;37.516;2023-03-21T07:46:32;7.32;;;3.67;;
74291;SDS011;62687;55.738;37.516;2023-03-21T07:49:16;14.02;;;5.47;;
74291;SDS011;62687;55.738;37.516;2023-03-21T07:52:00;9.45;;;4.57;;
74291;SDS011;62687;55.738;37.516;2023-03-21T07:54:44;11.77;;;4.53;;
74291;SDS011;62687;55.738;37.516;2023-03-21T07:57:29;9.07;;;4.32;;
74291;SDS011;62687;55.738;37.516;2023-03-21T08:00:13;13.30;;;6.32;;
74291;SDS011;62687;55.738;37.516;2023-03-21T08:03:05;7.25;;;4.13;;
74291;SDS011;62687;55.738;37.516;2023-03-21T08:05:49;8.93;;;4.40;;
74291;SDS011;62687;55.738;37.516;2023-03-21T08:08:34;9.40;;;4.60;;
74291;SDS011;62687;55.738;37.516;2023-03-21T08:11:18;7.20;;;3.88;;
74291;SDS011;62687;55.738;37.516;2023-03-21T08:14:04;10.93;;;3.40;;
74291;SDS011;62687;55.738;37.516;2023-03-21T08:16:48;7.93;;;3.88;;
74291;SDS011;62687;55.738;37.516;2023-03-21T08:19:32;8.10;;;4.47;;
74291;SDS011;62687;55.738;37.516;2023-03-21T08:22:16;9.25;;;4.05;;
74291;SDS011;62687;55.738;37.516;2023-03-21T08:25:00;4.47;;;2.70;;
74291;SDS011;62687;55.738;37.516;2023-03-21T08:27:47;6.10;;;3.17;;
74291;SDS011;62687;55.738;37.516;2023-03-21T08:30:33;10.63;;;5.13;;
74291;SDS011;62687;55.738;37.516;2023-03-21T08:33:17;12.20;;;4.93;;
74291;SDS011;62687;55.738;37.516;2023-03-21T08:36:02;8.07;;;4.38;;
74291;SDS011;62687;55.738;37.516;2023-03-21T08:38:48;6.40;;;3.33;;
74291;SDS011;62687;55.738;37.516;2023-03-21T08:41:36;12.43;;;5.70;;
74291;SDS011;62687;55.738;37.516;2023-03-21T08:44:21;9.57;;;4.78;;
74291;SDS011;62687;55.738;37.516;2023-03-21T08:47:05;11.55;;;4.78;;
74291;SDS011;62687;55.738;37.516;2023-03-21T08:49:49;13.82;;;4.45;;
74291;SDS011;62687;55.738;37.516;2023-03-21T08:52:33;7.65;;;4.75;;
74291;SDS011;62687;55.738;37.516;2023-03-21T08:55:17;9.55;;;3.88;;
74291;SDS011;62687;55.738;37.516;2023-03-21T08:58:02;7.15;;;2.97;;
74291;SDS011;62687;55.738;37.516;2023-03-21T09:00:47;10.77;;;5.05;;
74291;SDS011;62687;55.738;37.516;2023-03-21T09:03:31;11.52;;;5.15;;
74291;SDS011;62687;55.738;37.516;2023-03-21T09:06:15;11.35;;;5.20;;
74291;SDS011;62687;55.738;37.516;2023-03-21T09:08:59;12.82;;;5.30;;
74291;SDS011;62687;55.738;37.516;2023-03-21T09:11:44;10.25;;;4.28;;
74291;SDS011;62687;55.738;37.516;2023-03-21T09:14:28;9.57;;;4.70;;
74291;SDS011;62687;55.738;37.516;2023-03-21T09:17:12;8.90;;;4.43;;
74291;SDS011;62687;55.738;37.516;2023-03-21T09:19:56;11.35;;;5.18;;
74291;SDS011;62687;55.738;37.516;2023-03-21T09:22:42;14.68;;;5.68;;
74291;SDS011;62687;55.738;37.516;2023-03-21T09:25:26;11.07;;;5.43;;
74291;SDS011;62687;55.738;37.516;2023-03-21T09:28:13;13.75;;;5.20;;
74291;SDS011;62687;55.738;37.516;2023-03-21T09:30:59;9.35;;;5.03;;
74291;SDS011;62687;55.738;37.516;2023-03-21T09:33:45;11.07;;;5.25;;
74291;SDS011;62687;55.738;37.516;2023-03-21T09:36:29;9.20;;;4.30;;
74291;SDS011;62687;55.738;37.516;2023-03-21T09:39:14;9.13;;;4.38;;
74291;SDS011;62687;55.738;37.516;2023-03-21T09:45:20;9.23;;;4.32;;
74291;SDS011;62687;55.738;37.516;2023-03-21T09:48:16;7.63;;;4.10;;
74291;SDS011;62687;55.738;37.516;2023-03-21T09:51:15;8.32;;;3.20;;
74291;SDS011;62687;55.738;37.516;2023-03-21T09:54:02;10.90;;;4.20;;
74291;SDS011;62687;55.738;37.516;2023-03-21T09:56:51;7.10;;;3.30;;
74291;SDS011;62687;55.738;37.516;2023-03-21T09:59:39;11.45;;;4.00;;
74291;SDS011;62687;55.738;37.516;2023-03-21T10:02:34;7.25;;;4.05;;
74291;SDS011;62687;55.738;37.516;2023-03-21T10:05:32;8.20;;;4.10;;
74291;SDS011;62687;55.738;37.516;2023-03-21T10:08:19;6.05;;;3.70;;
74291;SDS011;62687;55.738;37.516;2023-03-21T10:13:58;7.28;;;3.55;;
74291;SDS011;62687;55.738;37.516;2023-03-21T10:16:56;7.22;;;3.15;;
74291;SDS011;62687;55.738;37.516;2023-03-21T10:22:55;10.40;;;3.55;;
74291;SDS011;62687;55.738;37.516;2023-03-21T10:25:44;4.43;;;2.67;;
74291;SDS011;62687;55.738;37.516;2023-03-21T10:28:32;5.55;;;3.20;;
74291;SDS011;62687;55.738;37.516;2023-03-21T10:31:23;4.38;;;2.00;;
74291;SDS011;62687;55.738;37.516;2023-03-21T10:34:14;6.68;;;4.13;;
74291;SDS011;62687;55.738;37.516;2023-03-21T10:37:01;13.85;;;4.70;;
74291;SDS011;62687;55.738;37.516;2023-03-21T10:39:48;11.27;;;3.63;;
74291;SDS011;62687;55.738;37.516;2023-03-21T10:42:35;7.93;;;4.10;;
74291;SDS011;62687;55.738;37.516;2023-03-21T10:45:19;9.70;;;3.53;;
74291;SDS011;62687;55.738;37.516;2023-03-21T10:48:06;7.65;;;3.95;;
74291;SDS011;62687;55.738;37.516;2023-03-21T10:50:52;8.07;;;3.45;;
74291;SDS011;62687;55.738;37.516;2023-03-21T10:53:39;11.38;;;4.03;;
74291;SDS011;62687;55.738;37.516;2023-03-21T10:56:30;6.65;;;3.20;;
74291;SDS011;62687;55.738;37.516;2023-03-21T10:59:19;5.57;;;3.45;;
74291;SDS011;62687;55.738;37.516;2023-03-21T11:02:06;7.70;;;3.33;;
74291;SDS011;62687;55.738;37.516;2023-03-21T11:05:04;9.88;;;3.75;;
74291;SDS011;62687;55.738;37.516;2023-03-21T11:11:06;6.97;;;3.22;;
74291;SDS011;62687;55.738;37.516;2023-03-21T11:13:58;7.57;;;3.08;;
74291;SDS011;62687;55.738;37.516;2023-03-21T11:16:49;10.98;;;3.28;;
74291;SDS011;62687;55.738;37.516;2023-03-21T11:19:34;7.60;;;3.10;;
74291;SDS011;62687;55.738;37.516;2023-03-21T11:22:20;6.28;;;3.05;;
74291;SDS011;62687;55.738;37.516;2023-03-21T11:25:09;10.05;;;3.50;;
74291;SDS011;62687;55.738;37.516;2023-03-21T11:28:07;4.50;;;2.92;;
74291;SDS011;62687;55.738;37.516;2023-03-21T11:30:58;8.20;;;2.78;;
74291;SDS011;62687;55.738;37.516;2023-03-21T11:33:53;8.63;;;3.50;;
74291;SDS011;62687;55.738;37.516;2023-03-21T11:36:42;5.47;;;2.72;;
74291;SDS011;62687;55.738;37.516;2023-03-21T11:39:35;7.13;;;2.67;;
74291;SDS011;62687;55.738;37.516;2023-03-21T11:42:29;6.57;;;3.05;;
74291;SDS011;62687;55.738;37.516;2023-03-21T11:48:12;5.50;;;2.60;;
74291;SDS011;62687;55.738;37.516;2023-03-21T11:50:58;7.63;;;2.92;;
74291;SDS011;62687;55.738;37.516;2023-03-21T11:54:10;4.93;;;2.50;;
74291;SDS011;62687;55.738;37.516;2023-03-21T12:06:40;6.10;;;1.98;;
74291;SDS011;62687;55.738;37.516;2023-03-21T12:12:54;11.75;;;2.50;;
74291;SDS011;62687;55.738;37.516;2023-03-21T12:21:59;6.38;;;2.78;;
74291;SDS011;62687;55.738;37.516;2023-03-21T12:24:53;9.85;;;2.50;;
74291;SDS011;62687;55.738;37.516;2023-03-21T12:27:56;8.73;;;2.67;;
74291;SDS011;62687;55.738;37.516;2023-03-21T12:39:31;6.30;;;2.25;;
74291;SDS011;62687;55.738;37.516;2023-03-21T12:45:26;12.48;;;3.10;;
74291;SDS011;62687;55.738;37.516;2023-03-21T12:50:58;6.40;;;2.60;;
74291;SDS011;62687;55.738;37.516;2023-03-21T12:53:55;3.55;;;2.17;;
74291;SDS011;62687;55.738;37.516;2023-03-21T13:03:11;6.95;;;3.28;;
74291;SDS011;62687;55.738;37.516;2023-03-21T13:06:04;5.78;;;2.70;;
74291;SDS011;62687;55.738;37.516;2023-03-21T13:08:57;6.78;;;3.00;;
74291;SDS011;62687;55.738;37.516;2023-03-21T13:11:47;6.32;;;2.58;;
74291;SDS011;62687;55.738;37.516;2023-03-21T13:14:38;11.70;;;3.13;;
74291;SDS011;62687;55.738;37.516;2023-03-21T13:17:49;12.73;;;2.90;;
74291;SDS011;62687;55.738;37.516;2023-03-21T13:20:43;7.10;;;2.60;;
74291;SDS011;62687;55.738;37.516;2023-03-21T13:23:33;4.45;;;3.03;;
74291;SDS011;62687;55.738;37.516;2023-03-21T13:26:20;10.40;;;3.10;;
74291;SDS011;62687;55.738;37.516;2023-03-21T13:32:31;7.32;;;2.60;;
74291;SDS011;62687;55.738;37.516;2023-03-21T13:38:14;4.80;;;2.28;;
74291;SDS011;62687;55.738;37.516;2023-03-21T13:41:06;6.68;;;2.95;;
74291;SDS011;62687;55.738;37.516;2023-03-21T13:46:52;7.15;;;2.55;;
74291;SDS011;62687;55.738;37.516;2023-03-21T13:49:38;7.43;;;2.78;;
74291;SDS011;62687;55.738;37.516;2023-03-21T13:52:26;5.55;;;2.40;;
74291;SDS011;62687;55.738;37.516;2023-03-21T13:55:15;5.55;;;2.05;;
74291;SDS011;62687;55.738;37.516;2023-03-21T14:07:07;4.57;;;2.33;;
74291;SDS011;62687;55.738;37.516;2023-03-21T14:09:59;7.85;;;2.50;;
74291;SDS011;62687;55.738;37.516;2023-03-21T14:12:46;4.68;;;2.50;;
74291;SDS011;62687;55.738;37.516;2023-03-21T14:15:36;6.78;;;2.35;;
74291;SDS011;62687;55.738;37.516;2023-03-21T14:18:26;11.13;;;3.28;;
74291;SDS011;62687;55.738;37.516;2023-03-21T14:21:20;7.85;;;2.65;;
74291;SDS011;62687;55.738;37.516;2023-03-21T14:24:10;13.32;;;2.88;;
74291;SDS011;62687;55.738;37.516;2023-03-21T14:26:56;6.00;;;2.75;;
74291;SDS011;62687;55.738;37.516;2023-03-21T14:29:41;7.68;;;2.63;;
74291;SDS011;62687;55.738;37.516;2023-03-21T14:32:29;6.38;;;2.47;;
74291;SDS011;62687;55.738;37.516;2023-03-21T14:35:13;5.30;;;2.25;;
74291;SDS011;62687;55.738;37.516;2023-03-21T14:38:05;10.60;;;3.42;;
74291;SDS011;62687;55.738;37.516;2023-03-21T14:41:02;5.85;;;2.30;;
74291;SDS011;62687;55.738;37.516;2023-03-21T14:44:00;11.10;;;3.20;;
74291;SDS011;62687;55.738;37.516;2023-03-21T14:46:46;6.22;;;2.42;;
74291;SDS011;62687;55.738;37.516;2023-03-21T14:49:32;7.00;;;2.50;;
74291;SDS011;62687;55.738;37.516;2023-03-21T14:55:12;10.40;;;3.60;;
74291;SDS011;62687;55.738;37.516;2023-03-21T15:00:42;6.32;;;2.78;;
74291;SDS011;62687;55.738;37.516;2023-03-21T15:03:26;8.95;;;2.83;;
74291;SDS011;62687;55.738;37.516;2023-03-21T15:06:12;11.18;;;3.70;;
74291;SDS011;62687;55.738;37.516;2023-03-21T15:08:57;7.35;;;2.78;;
74291;SDS011;62687;55.738;37.516;2023-03-21T15:11:47;13.13;;;3.42;;
74291;SDS011;62687;55.738;37.516;2023-03-21T15:14:34;7.00;;;3.33;;
74291;SDS011;62687;55.738;37.516;2023-03-21T15:17:20;7.82;;;3.08;;
74291;SDS011;62687;55.738;37.516;2023-03-21T15:20:09;11.57;;;3.10;;
74291;SDS011;62687;55.738;37.516;2023-03-21T15:22:58;12.02;;;3.10;;
74291;SDS011;62687;55.738;37.516;2023-03-21T15:25:47;14.60;;;3.58;;
74291;SDS011;62687;55.738;37.516;2023-03-21T15:28:34;10.00;;;2.42;;
74291;SDS011;62687;55.738;37.516;2023-03-21T15:31:20;11.18;;;3.17;;
74291;SDS011;62687;55.738;37.516;2023-03-21T15:34:06;9.60;;;3.30;;
74291;SDS011;62687;55.738;37.516;2023-03-21T15:37:06;8.25;;;2.92;;
74291;SDS011;62687;55.738;37.516;2023-03-21T15:39:52;10.32;;;3.10;;
74291;SDS011;62687;55.738;37.516;2023-03-21T15:43:02;10.57;;;3.05;;
74291;SDS011;62687;55.738;37.516;2023-03-21T15:45:59;7.40;;;3.05;;
74291;SDS011;62687;55.738;37.516;2023-03-21T15:48:43;5.35;;;2.80;;
74291;SDS011;62687;55.738;37.516;2023-03-21T15:51:27;7.07;;;3.33;;
74291;SDS011;62687;55.738;37.516;2023-03-21T15:54:22;5.85;;;3.20;;
74291;SDS011;62687;55.738;37.516;2023-03-21T15:57:20;10.45;;;2.70;;
74291;SDS011;62687;55.738;37.516;2023-03-21T16:03:05;8.20;;;3.20;;
74291;SDS011;62687;55.738;37.516;2023-03-21T16:06:03;19.55;;;3.50;;
74291;SDS011;62687;55.738;37.516;2023-03-21T16:09:14;7.32;;;3.42;;
74291;SDS011;62687;55.738;37.516;2023-03-21T16:12:12;9.55;;;3.22;;
74291;SDS011;62687;55.738;37.516;2023-03-21T16:14:57;15.93;;;4.32;;
74291;SDS011;62687;55.738;37.516;2023-03-21T16:17:46;14.52;;;3.53;;
74291;SDS011;62687;55.738;37.516;2023-03-21T16:20:35;12.13;;;3.33;;
74291;SDS011;62687;55.738;37.516;2023-03-21T16:23:23;8.02;;;2.70;;
74291;SDS011;62687;55.738;37.516;2023-03-21T16:26:10;11.20;;;2.67;;
74291;SDS011;62687;55.738;37.516;2023-03-21T16:28:55;5.78;;;2.60;;
74291;SDS011;62687;55.738;37.516;2023-03-21T16:31:40;7.45;;;2.70;;
74291;SDS011;62687;55.738;37.516;2023-03-21T16:34:25;6.57;;;2.50;;
74291;SDS011;62687;55.738;37.516;2023-03-21T16:37:10;7.07;;;3.00;;
74291;SDS011;62687;55.738;37.516;2023-03-21T16:39:54;6.00;;;2.40;;
74291;SDS011;62687;55.738;37.516;2023-03-21T16:42:39;5.53;;;2.80;;
74291;SDS011;62687;55.738;37.516;2023-03-21T16:45:23;8.20;;;2.92;;
74291;SDS011;62687;55.738;37.516;2023-03-21T16:48:09;8.93;;;3.22;;
74291;SDS011;62687;55.738;37.516;2023-03-21T16:50:58;6.57;;;2.83;;
74291;SDS011;62687;55.738;37.516;2023-03-21T16:53:43;7.40;;;2.60;;
74291;SDS011;62687;55.738;37.516;2023-03-21T16:56:29;6.80;;;3.25;;
74291;SDS011;62687;55.738;37.516;2023-03-21T16:59:18;7.38;;;2.28;;
74291;SDS011;62687;55.738;37.516;2023-03-21T17:02:12;8.38;;;3.03;;
74291;SDS011;62687;55.738;37.516;2023-03-21T17:04:59;5.03;;;2.30;;
74291;SDS011;62687;55.738;37.516;2023-03-21T17:07:44;6.75;;;3.22;;
74291;SDS011;62687;55.738;37.516;2023-03-21T17:10:30;10.45;;;3.50;;
74291;SDS011;62687;55.738;37.516;2023-03-21T17:13:15;7.05;;;2.97;;
74291;SDS011;62687;55.738;37.516;2023-03-21T17:15:59;7.05;;;2.40;;
74291;SDS011;62687;55.738;37.516;2023-03-21T17:18:43;11.85;;;3.00;;
74291;SDS011;62687;55.738;37.516;2023-03-21T17:21:27;7.97;;;3.33;;
74291;SDS011;62687;55.738;37.516;2023-03-21T17:24:12;10.40;;;4.05;;
74291;SDS011;62687;55.738;37.516;2023-03-21T17:26:57;15.18;;;4.93;;
74291;SDS011;62687;55.738;37.516;2023-03-21T17:29:43;10.93;;;4.40;;
74291;SDS011;62687;55.738;37.516;2023-03-21T17:32:27;11.10;;;5.38;;
74291;SDS011;62687;55.738;37.516;2023-03-21T17:35:11;17.92;;;6.45;;
74291;SDS011;62687;55.738;37.516;2023-03-21T17:37:56;11.82;;;6.32;;
74291;SDS011;62687;55.738;37.516;2023-03-21T17:40:40;39.00;;;16.38;;
74291;SDS011;62687;55.738;37.516;2023-03-21T17:43:24;25.67;;;12.05;;
74291;SDS011;62687;55.738;37.516;2023-03-21T17:46:12;23.20;;;10.20;;
74291;SDS011;62687;55.738;37.516;2023-03-21T17:48:58;19.65;;;9.55;;
74291;SDS011;62687;55.738;37.516;2023-03-21T17:51:42;63.70;;;25.88;;
74291;SDS011;62687;55.738;37.516;2023-03-21T17:54:29;18.00;;;8.13;;
74291;SDS011;62687;55.738;37.516;2023-03-21T17:57:13;15.77;;;7.90;;
74291;SDS011;62687;55.738;37.516;2023-03-21T17:59:58;9.30;;;5.07;;
74291;SDS011;62687;55.738;37.516;2023-03-21T18:02:42;10.63;;;5.43;;
74291;SDS011;62687;55.738;37.516;2023-03-21T18:05:26;16.02;;;6.93;;
74291;SDS011;62687;55.738;37.516;2023-03-21T18:08:11;17.85;;;7.05;;
74291;SDS011;62687;55.738;37.516;2023-03-21T18:10:55;15.23;;;7.28;;
74291;SDS011;62687;55.738;37.516;2023-03-21T18:13:39;12.77;;;6.72;;
74291;SDS011;62687;55.738;37.516;2023-03-21T18:16:23;14.38;;;6.60;;
74291;SDS011;62687;55.738;37.516;2023-03-21T18:19:09;20.27;;;8.80;;
74291;SDS011;62687;55.738;37.516;2023-03-21T18:21:55;14.85;;;8.55;;
74291;SDS011;62687;55.738;37.516;2023-03-21T18:24:39;15.60;;;7.35;;